AirNav   SIMCOM
 
 771 users online  

5W5 Triple W Airport
Raleigh, North Carolina, USA

GOING TO RALEIGH?


FAA INFORMATION EFFECTIVE 07 DECEMBER 2017

Location

FAA Identifier: 5W5
Lat/Long: 35-37-13.4000N / 078-42-01.0000W
35-37.223333N / 078-42.016667W
35.6203889 / -78.7002778
(estimated)
Elevation: 244 ft. / 74.4 m (surveyed)
Variation: 07W (1985)
From city: 11 miles SW of RALEIGH, NC
Time zone: UTC -5 (UTC -4 during Daylight Saving Time)
Zip code: 27526

Airport Operations

Airport use: Open to the public
Activation date: 06/1975
Control tower: no
ARTCC: WASHINGTON CENTER
FSS: RALEIGH FLIGHT SERVICE STATION
NOTAMs facility: RDU (NOTAM-D service available)
Attendance: IREG
Wind indicator: yes
Segmented circle: no
Lights: DUSK-2400 ACTVT LIRL - CTAF.
Beacon: white-green (lighted land airport)
Operates sunset to sunrise.

Airport Communications

CTAF/UNICOM: 122.7
WX AWOS-3 at HRJ (14 nm S): 119.025 (910-814-3946)
WX AWOS-3 at JNX (16 nm E): 120.225 (919-934-3851)
WX ASOS at RDU (16 nm N): PHONE 919-840-0816
WX AWOS-3 at TTA (20 nm W): 120.625 (919-708-5382)

Nearby radio navigation aids

VOR radial/distance  VOR name  Freq  Var
RDUr169/15.7RALEIGH/DURHAM VORTAC117.2004W
FAYr017/39.0FAYETTEVILLE VOR/DME108.8004W

 
NDB name  Hdg/Dist  Freq  Var  ID
HARNETT002/11.341708WHQT .... --.- -
POPE035/26.733807WPOB .--. --- -...
FORT BRAGG018/29.439307WFGP ..-. --. .--.

Airport Services

Parking: tiedowns
Airframe service: NONE
Powerplant service: NONE
Bottled oxygen: NONE
Bulk oxygen: NONE

Runway Information

Runway 16/34

Dimensions: 3004 x 40 ft. / 916 x 12 m
Surface: asphalt, in poor condition
HEAVY VEGETATION IN CRACKS
Runway edge lights: non-standard
LGTS 15 FT FROM EDGE OF RY. RY 16 THLD LGTS 150 FT FM THLD; RY 34 THLD LGTS 460 FT FM THLD.
Runway edge markings: RY 16/34 MARKINGS BADLY FADED.
RUNWAY 16  RUNWAY 34
Latitude: 35-37.445442N35-37.001075N
Longitude: 078-42.150513W078-41.882665W
Elevation: 243.0 ft.235.0 ft.
Gradient: 0.3% UP
Traffic pattern: leftleft
Runway heading: 161 magnetic, 154 true341 magnetic, 334 true
Markings: NSTD, in poor conditionNSTD, in poor condition
Obstructions: 103 ft. trees, 649 ft. from runway, 169 ft. right of centerline, 4:1 slope to clear
20 FT TREES 0-200 FT FROM THLD OFFSET 58 FT RIGHT OF CNTRLN; 35 FT TREES 0-200 FT FROM THLD OFFSET 52 FT LEFT OF CNTRLN
20 ft. trees, 276 ft. from runway, 34 ft. right of centerline, 3:1 slope to clear
25 FT TREES 0-200 FT FROM THLD OFFSET 78 FT RIGHT OF CNTRLN

Airport Ownership and Management from official FAA records

Ownership: Privately-owned
Owner: TRIPLE W ENTERPRISES INC
7124 BLUE JUPITER COURT
FUQUAY VARINA, NC 27526
Phone (919) 971-3718
Manager: PAUL WILLIAMS
7124 BLUE JUPITER COURT
FUQUAY VARINA, NC 27526
Phone (919) 971-3718

Airport Operational Statistics

Aircraft based on the field: 18
Single engine airplanes: 18
    
Aircraft operations: avg 41/day *
67% local general aviation
30% transient general aviation
3% military
* for 12-month period ending 08 July 2016

Additional Remarks

ALL ACFT OVER 6500 LBS PROHIBITED.
RY 16/34 PAEW PARL TWY.
DEER ON AND INVOF ARPT.
BE ALERT FOR RISING TERRAIN ALL QUADRANTS.
4 FT DROPOFF TAXIWAY EDGE BOTH SIDES - SOUTH END.
TOWER (500' AGL/ 826' MSL) APPROX 1.75 NM NW OF ARPT.
NUMEROUS UNLGTD OBSTR INVOF ARPT. NIGHT LANDINGS NOT RECOMMENDED.
RY 16/34 HAS 4 FT DROPOFF 20 FT FROM PAVEMENT EDGE ALL SIDES.
TWY NOT LIGHTED.

Instrument Procedures

There are no published instrument procedures at 5W5.

Some nearby airports with instrument procedures:

KHRJ - Harnett Regional Jetport Airport (14 nm S)
KJNX - Johnston Regional Airport (16 nm E)
KRDU - Raleigh-Durham International Airport (16 nm N)
KTTA - Raleigh Executive Jetport at Sanford-Lee County Airport (20 nm W)
KIGX - Horace Williams Airport (26 nm NW)
 
Loc | Ops | Rwys | IFR | FBO | Links
Com | Nav | Svcs | Stats | Notes


 
Area around 5W5 (Triple W Airport)
 
Road maps at: MapQuest Bing Google
 
Aerial photo
WARNING: Photo may not be current or correct
Aerial photo of 5W5 (Triple W Airport)
Photo by David L Newcomer
Photo taken 27-Feb-2010
from 3,000' altitude looking west.

Do you have a better or more recent aerial photo of Triple W Airport that you would like to share? If so, please send us your photo.

 
Sectional chart

 
Airport distance calculator
Flying to Triple W Airport? Find the distance to fly.

From to 5W5

Sunrise and sunset
Times for 10-Dec-2017
 Local
(UTC-5)
 Zulu
(UTC)
Morning civil twilight06:4611:46
Sunrise07:1512:15
Sunset17:0122:01
Evening civil twilight17:2922:29

Current date and time
Zulu (UTC)  11-Dec-2017 04:21:13
Local (UTC-5)  10-Dec-2017 23:21:13
 
METAR
KHRJ 
14nm S 
110345Z AUTO 00000KT 10SM CLR 00/M03 A3018 RMK AO2 T00021033
KRDU 
15nm N 
110351Z 23005KT 10SM CLR 00/M04 A3014 RMK AO2 SLP207 T00001039
KJNX 
16nm E 
110335Z AUTO 00000KT 10SM CLR M01/M02 A3017 RMK AO2
KTTA 
20nm W 
110350Z AUTO 00000KT 10SM CLR M03/M04 A3015 RMK AO2 T10331036
KIGX 
26nm NW 
110356Z AUTO 00000KT 10SM CLR M02/M04 A3013 RMK AO2 SLP205 T10171044
TAF
KRDU 
15nm N 
102001Z 1020/1118 28008KT P6SM FEW040 FM110000 22004KT P6SM SKC
NOTAMs
Click for the latest NOTAMs
NOTAMs are issued by the DoD/FAA and will open in a separate window not controlled by AirNav.

 

 
 

Would you like to see your business listed on this page?

 If your business provides an interesting product or service to pilots, flight crews, aircraft, or users of the Triple W Airport, you should consider listing it here.  To start the listing process, click on the button below
 
Add a business
 

Other Pages about Triple W Airport

Update a link
 
Copyright © AirNav, LLC. All rights reserved. Privacy Policy  Contact